createdAt,value
2017-08-07T00:01:07.469Z,0
2017-08-07T00:02:17.297Z,0
2017-08-07T00:03:26.827Z,0
2017-08-07T00:04:35.722Z,0
2017-08-07T00:05:45.578Z,0
2017-08-07T00:06:55.105Z,0
2017-08-07T00:08:04.642Z,0
2017-08-07T00:09:13.851Z,0
2017-08-07T00:10:23.058Z,0
2017-08-07T00:11:32.273Z,0
2017-08-07T00:12:41.486Z,0
2017-08-07T00:13:51.489Z,0
2017-08-07T00:15:01.020Z,0
2017-08-07T00:16:10.225Z,0
2017-08-07T00:17:20.082Z,0
2017-08-07T00:18:29.931Z,0
2017-08-07T00:19:39.569Z,0
2017-08-07T00:20:48.778Z,0
2017-08-07T00:21:57.666Z,0
2017-08-07T00:23:07.520Z,0
2017-08-07T00:24:17.051Z,0
2017-08-07T00:25:26.734Z,0
2017-08-07T00:26:36.270Z,0
2017-08-07T00:27:45.800Z,0
2017-08-07T00:28:55.342Z,0
2017-08-07T00:30:05.207Z,0
2017-08-07T00:31:14.943Z,0
2017-08-07T00:32:25.139Z,0
2017-08-07T00:33:34.989Z,0
2017-08-07T00:34:44.517Z,0
2017-08-07T00:35:53.414Z,0
2017-08-07T00:37:02.990Z,0
2017-08-07T00:38:12.843Z,0
2017-08-07T00:39:21.721Z,0
2017-08-07T00:40:31.578Z,0
2017-08-07T00:41:41.430Z,0
2017-08-07T00:42:50.462Z,0
2017-08-07T00:43:59.666Z,0
2017-08-07T00:45:08.869Z,0
2017-08-07T00:46:18.397Z,0
2017-08-07T00:47:27.930Z,0
2017-08-07T00:48:37.438Z,0
2017-08-07T00:49:46.320Z,0
2017-08-07T00:50:55.520Z,0
2017-08-07T00:52:04.722Z,0
2017-08-07T00:53:14.900Z,0
2017-08-07T00:54:24.432Z,0
2017-08-07T00:55:33.636Z,0
2017-08-07T00:56:42.527Z,0
2017-08-07T00:57:51.412Z,0
2017-08-07T00:59:00.618Z,0
2017-08-07T01:00:10.251Z,0
2017-08-07T01:01:20.154Z,0
2017-08-07T01:02:29.357Z,0
2017-08-07T01:03:39.210Z,0
2017-08-07T01:04:48.090Z,0
2017-08-07T01:05:57.763Z,0
2017-08-07T01:07:07.619Z,0
2017-08-07T01:08:17.145Z,0
2017-08-07T01:09:26.348Z,0
2017-08-07T01:10:35.560Z,0
2017-08-07T01:11:45.085Z,0
2017-08-07T01:12:54.293Z,0
2017-08-07T01:14:04.142Z,0
2017-08-07T01:15:13.671Z,0
2017-08-07T01:16:23.210Z,0
2017-08-07T01:17:33.072Z,0
2017-08-07T01:18:41.952Z,0
2017-08-07T01:19:51.803Z,0
2017-08-07T01:21:01.011Z,0
2017-08-07T01:22:09.894Z,0
2017-08-07T01:23:19.791Z,0
2017-08-07T01:24:28.994Z,0
2017-08-07T01:25:38.522Z,0
2017-08-07T01:26:48.376Z,0
2017-08-07T01:27:57.904Z,0
2017-08-07T01:29:07.580Z,0
2017-08-07T01:30:16.789Z,0
2017-08-07T01:31:25.999Z,0
2017-08-07T01:32:35.202Z,0
2017-08-07T01:33:44.402Z,0
2017-08-07T01:34:53.983Z,0
2017-08-07T01:36:03.185Z,0
2017-08-07T01:37:12.393Z,0
2017-08-07T01:38:21.604Z,0
2017-08-07T01:39:30.810Z,0
2017-08-07T01:40:40.015Z,0
2017-08-07T01:41:49.548Z,0
2017-08-07T01:42:58.753Z,0
2017-08-07T01:44:08.604Z,0
2017-08-07T01:45:17.489Z,0
2017-08-07T01:46:27.589Z,0
2017-08-07T01:47:37.120Z,0
2017-08-07T01:48:46.005Z,0
2017-08-07T01:49:55.531Z,0
2017-08-07T01:51:04.416Z,0
2017-08-07T01:52:14.096Z,0
2017-08-07T01:53:23.624Z,0
2017-08-07T01:54:33.151Z,0
2017-08-07T01:55:42.369Z,0
2017-08-07T01:56:51.894Z,0
2017-08-07T01:58:01.579Z,0
2017-08-07T01:59:11.109Z,0
2017-08-07T02:00:20.969Z,0
2017-08-07T02:01:30.504Z,0
2017-08-07T02:02:39.707Z,0
2017-08-07T02:03:49.014Z,0
2017-08-07T02:04:57.900Z,0
2017-08-07T02:06:07.107Z,0
2017-08-07T02:07:16.955Z,0
2017-08-07T02:08:26.803Z,0
2017-08-07T02:09:36.329Z,0
2017-08-07T02:10:46.502Z,0
2017-08-07T02:11:56.033Z,0
2017-08-07T02:13:05.233Z,0
2017-08-07T02:14:14.443Z,0
2017-08-07T02:15:23.846Z,0
2017-08-07T02:16:33.373Z,0
2017-08-07T02:17:42.253Z,0
2017-08-07T02:18:52.429Z,0
2017-08-07T02:20:01.631Z,0
2017-08-07T02:21:11.785Z,0
2017-08-07T02:22:21.313Z,0
2017-08-07T02:23:30.845Z,0
2017-08-07T02:24:39.727Z,0
2017-08-07T02:25:48.936Z,0
2017-08-07T02:26:58.861Z,0
2017-08-07T02:28:08.390Z,0
2017-08-07T02:29:17.593Z,0
2017-08-07T02:30:27.443Z,0
2017-08-07T02:31:36.971Z,0
2017-08-07T02:32:46.598Z,0
2017-08-07T02:33:56.452Z,0
2017-08-07T02:35:05.986Z,0
2017-08-07T02:36:15.514Z,0
2017-08-07T02:37:25.363Z,0
2017-08-07T02:38:34.243Z,0
2017-08-07T02:39:44.416Z,0
2017-08-07T02:40:53.633Z,0
2017-08-07T02:42:02.849Z,0
2017-08-07T02:43:12.709Z,0
2017-08-07T02:44:22.075Z,0
2017-08-07T02:45:31.612Z,0
2017-08-07T02:46:41.485Z,0
2017-08-07T02:47:50.373Z,0
2017-08-07T02:48:59.252Z,0
2017-08-07T02:50:09.227Z,0
2017-08-07T02:51:18.434Z,0
2017-08-07T02:52:27.960Z,0
2017-08-07T02:53:36.841Z,0
2017-08-07T02:54:46.842Z,0
2017-08-07T02:55:55.883Z,0
2017-08-07T02:57:05.414Z,0
2017-08-07T02:58:15.266Z,0
2017-08-07T02:59:24.469Z,0
2017-08-07T03:00:33.673Z,0
2017-08-07T03:01:43.678Z,0
2017-08-07T03:02:53.202Z,0
2017-08-07T03:04:02.731Z,0
2017-08-07T03:05:12.263Z,0
2017-08-07T03:06:21.470Z,0
2017-08-07T03:07:31.480Z,0
2017-08-07T03:08:41.004Z,0
2017-08-07T03:09:50.533Z,0
2017-08-07T03:10:59.738Z,0
2017-08-07T03:12:09.591Z,0
2017-08-07T03:13:18.793Z,0
2017-08-07T03:14:27.998Z,0
2017-08-07T03:15:37.209Z,0
2017-08-07T03:16:46.414Z,0
2017-08-07T03:17:55.938Z,0
2017-08-07T03:19:05.463Z,0
2017-08-07T03:20:15.638Z,4
2017-08-07T03:21:25.169Z,4
2017-08-07T03:22:35.020Z,0
2017-08-07T03:23:44.546Z,4
2017-08-07T03:24:53.907Z,4
2017-08-07T03:26:03.433Z,0
2017-08-07T03:27:13.284Z,4
2017-08-07T03:28:23.139Z,4
2017-08-07T03:29:32.665Z,8
2017-08-07T03:30:42.030Z,4
2017-08-07T03:31:51.567Z,4
2017-08-07T03:33:01.091Z,12
2017-08-07T03:34:10.622Z,12
2017-08-07T03:35:20.474Z,12
2017-08-07T03:36:29.674Z,12
2017-08-07T03:37:38.880Z,16
2017-08-07T03:38:48.095Z,16
2017-08-07T03:39:57.623Z,20
2017-08-07T03:41:07.798Z,24
2017-08-07T03:42:18.121Z,28
2017-08-07T03:43:27.650Z,28
2017-08-07T03:44:36.532Z,36
2017-08-07T03:45:46.380Z,40
2017-08-07T03:46:55.908Z,48
2017-08-07T03:48:05.684Z,52
2017-08-07T03:49:15.212Z,56
2017-08-07T03:50:24.749Z,64
2017-08-07T03:51:34.600Z,68
2017-08-07T03:52:44.460Z,76
2017-08-07T03:53:53.913Z,84
2017-08-07T03:55:03.439Z,92
2017-08-07T03:56:13.289Z,100
2017-08-07T03:57:22.502Z,108
2017-08-07T03:58:32.674Z,116
2017-08-07T03:59:42.353Z,124
2017-08-07T04:00:51.890Z,132
2017-08-07T04:02:01.418Z,140
2017-08-07T04:03:10.620Z,152
2017-08-07T04:04:19.510Z,160
2017-08-07T04:05:28.723Z,168
2017-08-07T04:06:38.901Z,180
2017-08-07T04:07:48.753Z,188
2017-08-07T04:08:58.284Z,200
2017-08-07T04:10:07.490Z,212
2017-08-07T04:11:17.445Z,220
2017-08-07T04:12:27.296Z,232
2017-08-07T04:13:36.819Z,240
2017-08-07T04:14:46.351Z,252
2017-08-07T04:15:55.886Z,260
2017-08-07T04:17:05.713Z,272
2017-08-07T04:18:15.250Z,280
2017-08-07T04:19:24.774Z,296
2017-08-07T04:20:33.977Z,304
2017-08-07T04:21:43.832Z,316
2017-08-07T04:22:53.412Z,328
2017-08-07T04:24:03.268Z,336
2017-08-07T04:25:13.128Z,352
2017-08-07T04:26:22.979Z,364
2017-08-07T04:27:32.186Z,376
2017-08-07T04:28:42.192Z,388
2017-08-07T04:29:51.074Z,404
2017-08-07T04:31:00.601Z,412
2017-08-07T04:32:10.450Z,432
2017-08-07T04:33:19.664Z,444
2017-08-07T04:34:29.342Z,456
2017-08-07T04:35:38.874Z,468
2017-08-07T04:36:48.413Z,480
2017-08-07T04:37:58.271Z,488
2017-08-07T04:39:07.802Z,500
2017-08-07T04:40:17.852Z,512
2017-08-07T04:41:28.351Z,524
2017-08-07T04:42:37.878Z,536
2017-08-07T04:43:48.089Z,548
2017-08-07T04:44:57.944Z,556
2017-08-07T04:46:07.472Z,568
2017-08-07T04:47:17.645Z,584
2017-08-07T04:48:27.497Z,592
2017-08-07T04:49:37.032Z,604
2017-08-07T04:50:46.561Z,620
2017-08-07T04:51:55.440Z,628
2017-08-07T04:53:04.649Z,644
2017-08-07T04:54:14.185Z,652
2017-08-07T04:55:23.720Z,660
2017-08-07T04:56:32.941Z,672
2017-08-07T04:57:42.618Z,680
2017-08-07T04:58:52.148Z,688
2017-08-07T05:00:01.673Z,700
2017-08-07T05:01:11.850Z,708
2017-08-07T05:02:21.702Z,720
2017-08-07T05:03:31.283Z,728
2017-08-07T05:04:40.810Z,740
2017-08-07T05:05:50.014Z,748
2017-08-07T05:06:59.229Z,756
2017-08-07T05:08:08.455Z,764
2017-08-07T05:09:17.964Z,772
2017-08-07T05:10:27.172Z,784
2017-08-07T05:11:36.705Z,796
2017-08-07T05:12:46.880Z,800
2017-08-07T05:13:56.409Z,812
2017-08-07T05:15:06.090Z,824
2017-08-07T05:16:15.626Z,836
2017-08-07T05:17:25.482Z,852
2017-08-07T05:18:34.693Z,864
2017-08-07T05:19:43.903Z,880
2017-08-07T05:20:53.159Z,896
2017-08-07T05:22:03.015Z,920
2017-08-07T05:23:12.552Z,932
2017-08-07T05:24:21.757Z,944
2017-08-07T05:25:31.604Z,952
2017-08-07T05:26:41.280Z,960
2017-08-07T05:27:51.133Z,968
2017-08-07T05:29:01.310Z,980
2017-08-07T05:30:11.173Z,988
2017-08-07T05:31:20.381Z,1000
2017-08-07T05:32:30.215Z,1008
2017-08-07T05:33:39.095Z,1012
2017-08-07T05:34:47.980Z,1016
2017-08-07T05:35:56.873Z,1016
2017-08-07T05:37:06.401Z,1016
2017-08-07T05:38:15.934Z,1016
2017-08-07T05:39:25.790Z,1020
2017-08-07T05:40:35.653Z,1024
2017-08-07T05:41:44.866Z,1040
2017-08-07T05:42:54.392Z,1044
2017-08-07T05:44:04.654Z,1052
2017-08-07T05:45:14.182Z,1056
2017-08-07T05:46:23.711Z,1068
2017-08-07T05:47:32.920Z,1076
2017-08-07T05:48:42.449Z,1100
2017-08-07T05:49:51.716Z,1124
2017-08-07T05:51:00.597Z,1132
2017-08-07T05:52:09.811Z,1132
2017-08-07T05:53:19.716Z,1116
2017-08-07T05:54:29.564Z,1100
2017-08-07T05:55:39.568Z,1092
2017-08-07T05:56:48.780Z,1092
2017-08-07T05:57:58.004Z,1096
2017-08-07T05:59:08.184Z,1108
2017-08-07T06:00:18.366Z,1112
2017-08-07T06:01:28.470Z,1112
2017-08-07T06:02:37.695Z,1112
2017-08-07T06:03:46.905Z,1104
2017-08-07T06:04:55.799Z,1096
2017-08-07T06:06:05.331Z,1080
2017-08-07T06:07:14.860Z,1060
2017-08-07T06:08:24.505Z,1044
2017-08-07T06:09:34.361Z,1036
2017-08-07T06:10:43.901Z,1048
2017-08-07T06:11:53.436Z,1068
2017-08-07T06:13:02.320Z,1080
2017-08-07T06:14:11.531Z,1092
2017-08-07T06:15:21.066Z,1096
2017-08-07T06:16:30.599Z,1100
2017-08-07T06:17:39.821Z,1104
2017-08-07T06:18:49.027Z,1108
2017-08-07T06:19:59.205Z,1108
2017-08-07T06:21:08.733Z,1116
2017-08-07T06:22:18.261Z,1124
2017-08-07T06:23:28.114Z,1132
2017-08-07T06:24:37.645Z,1140
2017-08-07T06:25:47.827Z,1148
2017-08-07T06:26:57.035Z,1156
2017-08-07T06:28:05.928Z,1160
2017-08-07T06:29:15.776Z,1168
2017-08-07T06:30:25.315Z,1176
2017-08-07T06:31:34.205Z,1188
2017-08-07T06:32:43.466Z,1196
2017-08-07T06:33:52.679Z,1204
2017-08-07T06:35:02.533Z,1208
2017-08-07T06:36:12.067Z,1212
2017-08-07T06:37:21.932Z,1216
2017-08-07T06:38:31.613Z,1224
2017-08-07T06:39:41.475Z,1228
2017-08-07T06:40:51.335Z,1236
2017-08-07T06:42:01.193Z,1248
2017-08-07T06:43:10.724Z,1256
2017-08-07T06:44:19.990Z,1264
2017-08-07T06:45:29.515Z,1268
2017-08-07T06:46:38.727Z,1272
2017-08-07T06:47:47.931Z,1276
2017-08-07T06:48:56.815Z,1276
2017-08-07T06:50:07.092Z,1292
2017-08-07T06:51:16.634Z,1300
2017-08-07T06:52:26.165Z,1312
2017-08-07T06:53:35.712Z,1328
2017-08-07T06:54:45.565Z,1332
2017-08-07T06:55:55.669Z,1336
2017-08-07T06:57:05.200Z,1332
2017-08-07T06:58:15.383Z,1324
2017-08-07T06:59:25.242Z,1328
2017-08-07T07:00:34.448Z,1316
2017-08-07T07:01:44.136Z,1312
2017-08-07T07:02:53.343Z,1304
2017-08-07T07:04:02.889Z,1292
2017-08-07T07:05:12.434Z,1280
2017-08-07T07:06:21.961Z,1272
2017-08-07T07:07:31.892Z,1268
2017-08-07T07:08:41.614Z,1272
2017-08-07T07:09:50.638Z,1272
2017-08-07T07:10:59.878Z,1268
2017-08-07T07:12:09.735Z,1268
2017-08-07T07:13:19.193Z,1264
2017-08-07T07:14:29.049Z,1264
2017-08-07T07:15:38.584Z,1256
2017-08-07T07:16:48.449Z,1260
2017-08-07T07:17:58.641Z,1276
2017-08-07T07:19:08.972Z,1284
2017-08-07T07:20:18.503Z,1296
2017-08-07T07:21:28.361Z,1304
2017-08-07T07:22:37.900Z,1320
2017-08-07T07:23:47.108Z,1332
2017-08-07T07:24:56.156Z,1344
2017-08-07T07:26:05.039Z,1340
2017-08-07T07:27:14.572Z,1380
2017-08-07T07:28:23.455Z,1392
2017-08-07T07:29:32.999Z,1400
2017-08-07T07:30:42.036Z,1408
2017-08-07T07:31:51.244Z,1416
2017-08-07T07:33:00.463Z,1424
2017-08-07T07:34:10.008Z,1428
2017-08-07T07:35:19.538Z,1436
2017-08-07T07:36:29.483Z,1444
2017-08-07T07:37:39.349Z,1444
2017-08-07T07:38:49.212Z,1440
2017-08-07T07:39:59.080Z,1440
2017-08-07T07:41:08.941Z,1444
2017-08-07T07:42:19.169Z,1444
2017-08-07T07:43:29.025Z,1436
2017-08-07T07:44:39.221Z,1436
2017-08-07T07:45:48.438Z,1428
2017-08-07T07:46:57.659Z,1428
2017-08-07T07:48:07.988Z,1432
2017-08-07T07:49:17.569Z,1444
2017-08-07T07:50:27.099Z,1456
2017-08-07T07:51:36.953Z,1460
2017-08-07T07:52:46.490Z,1472
2017-08-07T07:53:56.048Z,1480
2017-08-07T07:55:05.260Z,1492
2017-08-07T07:56:14.144Z,1508
2017-08-07T07:57:23.354Z,1508
2017-08-07T07:58:32.561Z,1496
2017-08-07T07:59:42.247Z,1492
2017-08-07T08:00:51.459Z,1484
2017-08-07T08:02:00.998Z,1480
2017-08-07T08:03:10.526Z,1476
2017-08-07T08:04:19.409Z,1476
2017-08-07T08:05:29.093Z,1488
2017-08-07T08:06:38.965Z,1500
2017-08-07T08:07:48.183Z,1516
2017-08-07T08:08:57.716Z,1536
2017-08-07T08:10:07.570Z,1560
2017-08-07T08:11:17.157Z,1576
2017-08-07T08:12:26.688Z,1592
2017-08-07T08:13:35.896Z,1600
2017-08-07T08:14:46.075Z,1616
2017-08-07T08:15:55.285Z,1620
2017-08-07T08:17:04.226Z,1608
2017-08-07T08:18:14.110Z,1604
2017-08-07T08:19:23.642Z,1596
2017-08-07T08:20:32.857Z,1600
2017-08-07T08:21:42.069Z,1596
2017-08-07T08:22:51.593Z,1588
2017-08-07T08:24:01.451Z,1580
2017-08-07T08:25:11.314Z,1600
2017-08-07T08:26:20.844Z,1600
2017-08-07T08:27:29.732Z,1600
2017-08-07T08:28:38.784Z,1616
2017-08-07T08:29:47.997Z,1636
2017-08-07T08:30:57.533Z,1644
2017-08-07T08:32:07.388Z,1644
2017-08-07T08:33:16.605Z,1664
2017-08-07T08:34:25.586Z,1676
2017-08-07T08:35:34.806Z,1692
2017-08-07T08:36:44.015Z,1720
2017-08-07T08:37:52.911Z,1736
2017-08-07T08:39:02.122Z,1764
2017-08-07T08:40:11.633Z,1796
2017-08-07T08:41:21.167Z,1804
2017-08-07T08:42:30.377Z,1824
2017-08-07T08:43:39.597Z,1816
2017-08-07T08:44:48.806Z,1808
2017-08-07T08:45:58.640Z,1776
2017-08-07T08:47:07.860Z,1760
2017-08-07T08:48:17.082Z,1736
2017-08-07T08:49:26.623Z,1716
2017-08-07T08:50:36.153Z,1688
2017-08-07T08:51:45.413Z,1672
2017-08-07T08:52:54.945Z,1676
2017-08-07T08:54:04.480Z,1672
2017-08-07T08:55:13.690Z,1656
2017-08-07T08:56:22.902Z,1668
2017-08-07T08:57:32.735Z,1672
2017-08-07T08:58:42.272Z,1680
2017-08-07T08:59:52.127Z,1700
2017-08-07T09:01:01.984Z,1716
2017-08-07T09:02:11.532Z,1728
2017-08-07T09:03:21.396Z,1748
2017-08-07T09:04:30.606Z,1752
2017-08-07T09:05:39.832Z,1760
2017-08-07T09:06:49.044Z,1772
2017-08-07T09:07:58.265Z,1772
2017-08-07T09:09:08.172Z,1748
2017-08-07T09:10:18.357Z,1732
2017-08-07T09:11:27.890Z,1720
2017-08-07T09:12:37.101Z,1708
2017-08-07T09:13:45.983Z,1696
2017-08-07T09:14:54.972Z,1700
2017-08-07T09:16:04.831Z,1708
2017-08-07T09:17:14.693Z,1708
2017-08-07T09:18:23.912Z,1708
2017-08-07T09:19:33.121Z,1700
2017-08-07T09:20:42.819Z,1688
2017-08-07T09:21:52.351Z,1688
2017-08-07T09:23:01.558Z,1700
2017-08-07T09:24:11.098Z,1716
2017-08-07T09:25:20.633Z,1736
2017-08-07T09:26:30.419Z,1744
2017-08-07T09:27:39.967Z,1760
2017-08-07T09:28:49.529Z,1764
2017-08-07T09:29:59.707Z,1768
2017-08-07T09:31:08.925Z,1808
2017-08-07T09:32:18.612Z,1856
2017-08-07T09:33:27.823Z,1908
2017-08-07T09:34:37.680Z,2040
2017-08-07T09:35:46.563Z,2072
2017-08-07T09:36:56.446Z,2032
2017-08-07T09:38:06.236Z,2000
2017-08-07T09:39:16.090Z,2008
2017-08-07T09:40:25.306Z,2024
2017-08-07T09:41:35.486Z,2056
2017-08-07T09:42:44.695Z,2100
2017-08-07T09:43:54.281Z,2152
2017-08-07T09:45:04.781Z,2204
2017-08-07T09:46:14.327Z,2216
2017-08-07T09:47:24.180Z,2220
2017-08-07T09:48:33.075Z,2208
2017-08-07T09:49:42.014Z,2228
2017-08-07T09:50:51.230Z,2240
2017-08-07T09:52:00.448Z,2276
2017-08-07T09:53:09.657Z,2324
2017-08-07T09:54:18.862Z,2380
2017-08-07T09:55:28.000Z,2388
2017-08-07T09:56:36.887Z,2396
2017-08-07T09:57:46.750Z,2440
2017-08-07T09:58:56.284Z,2460
2017-08-07T10:00:05.492Z,2516
2017-08-07T10:01:14.855Z,2520
2017-08-07T10:02:25.036Z,2544
2017-08-07T10:03:34.574Z,2564
2017-08-07T10:04:44.102Z,2596
2017-08-07T10:05:53.317Z,2592
2017-08-07T10:07:03.232Z,2588
2017-08-07T10:08:13.424Z,2600
2017-08-07T10:09:23.609Z,2600
2017-08-07T10:10:32.829Z,2572
2017-08-07T10:11:42.364Z,2608
2017-08-07T10:12:51.401Z,2736
2017-08-07T10:14:00.934Z,2892
2017-08-07T10:15:10.157Z,3064
2017-08-07T10:16:19.373Z,3240
2017-08-07T10:17:28.584Z,3360
2017-08-07T10:18:37.573Z,3412
2017-08-07T10:19:46.784Z,3420
2017-08-07T10:20:55.992Z,3444
2017-08-07T10:22:05.213Z,3612
2017-08-07T10:23:14.749Z,3868
2017-08-07T10:24:24.020Z,3992
2017-08-07T10:25:32.906Z,4180
2017-08-07T10:26:42.450Z,4552
2017-08-07T10:27:51.662Z,4836
2017-08-07T10:29:01.199Z,4852
2017-08-07T10:30:10.884Z,4692
2017-08-07T10:31:20.101Z,4564
2017-08-07T10:32:29.957Z,4072
2017-08-07T10:33:39.169Z,3692
2017-08-07T10:34:48.705Z,3784
2017-08-07T10:35:58.064Z,3700
2017-08-07T10:37:07.600Z,3560
2017-08-07T10:38:17.138Z,3456
2017-08-07T10:39:26.672Z,3488
2017-08-07T10:40:36.531Z,4036
2017-08-07T10:41:46.371Z,4804
2017-08-07T10:42:55.605Z,5336
2017-08-07T10:44:05.464Z,5656
2017-08-07T10:45:15.002Z,5768
2017-08-07T10:46:24.229Z,5612
2017-08-07T10:47:33.489Z,5576
2017-08-07T10:48:42.704Z,5640
2017-08-07T10:49:52.240Z,6044
2017-08-07T10:51:01.453Z,6332
2017-08-07T10:52:11.651Z,6416
2017-08-07T10:53:20.916Z,6584
2017-08-07T10:54:30.459Z,6784
2017-08-07T10:55:40.317Z,6544
2017-08-07T10:56:49.852Z,6220
2017-08-07T10:57:59.384Z,5780
2017-08-07T10:59:09.117Z,5832
2017-08-07T11:00:18.674Z,5760
2017-08-07T11:01:27.567Z,5904
2017-08-07T11:02:37.110Z,6252
2017-08-07T11:03:46.321Z,6240
2017-08-07T11:04:55.206Z,5984
2017-08-07T11:06:04.741Z,6524
2017-08-07T11:07:14.279Z,7380
2017-08-07T11:08:23.817Z,8240
2017-08-07T11:09:32.709Z,8312
2017-08-07T11:10:41.971Z,7712
2017-08-07T11:11:51.516Z,7324
2017-08-07T11:13:00.730Z,6548
2017-08-07T11:14:09.945Z,6520
2017-08-07T11:15:19.155Z,6512
2017-08-07T11:16:28.417Z,6636
2017-08-07T11:17:38.274Z,7216
2017-08-07T11:18:48.138Z,7820
2017-08-07T11:19:57.360Z,7912
2017-08-07T11:21:07.220Z,7672
2017-08-07T11:22:16.854Z,7292
2017-08-07T11:23:26.742Z,7068
2017-08-07T11:24:35.960Z,6196
2017-08-07T11:25:45.821Z,5484
2017-08-07T11:26:55.037Z,5160
2017-08-07T11:28:04.784Z,5076
2017-08-07T11:29:14.687Z,5120
2017-08-07T11:30:24.230Z,5348
2017-08-07T11:31:33.771Z,5568
2017-08-07T11:32:42.674Z,6012
2017-08-07T11:33:52.041Z,6112
2017-08-07T11:35:01.584Z,6816
2017-08-07T11:36:10.468Z,7108
2017-08-07T11:37:19.680Z,6632
2017-08-07T11:38:29.216Z,6956
2017-08-07T11:39:39.647Z,7280
2017-08-07T11:40:48.546Z,7296
2017-08-07T11:41:57.762Z,6808
2017-08-07T11:43:07.296Z,5936
2017-08-07T11:44:16.834Z,5976
2017-08-07T11:45:26.151Z,6576
2017-08-07T11:46:36.014Z,7576
2017-08-07T11:47:45.226Z,8424
2017-08-07T11:48:55.086Z,7916
2017-08-07T11:50:04.945Z,8020
2017-08-07T11:51:14.476Z,8188
2017-08-07T11:52:23.688Z,8268
2017-08-07T11:53:33.224Z,7636
2017-08-07T11:54:42.439Z,8044
2017-08-07T11:55:51.331Z,8092
2017-08-07T11:57:00.915Z,8416
2017-08-07T11:58:10.462Z,8620
2017-08-07T11:59:19.677Z,9188
2017-08-07T12:00:29.218Z,11500
2017-08-07T12:01:38.755Z,35616
2017-08-07T12:02:49.017Z,59712
2017-08-07T12:03:58.252Z,53312
2017-08-07T12:05:08.110Z,53312
2017-08-07T12:06:17.331Z,55040
2017-08-07T12:07:26.871Z,46432
2017-08-07T12:08:36.645Z,37088
2017-08-07T12:09:46.510Z,34144
2017-08-07T12:10:55.727Z,36480
2017-08-07T12:12:05.590Z,31872
2017-08-07T12:13:14.815Z,27776
2017-08-07T12:14:24.374Z,44320
2017-08-07T12:15:33.592Z,52448
2017-08-07T12:16:42.817Z,56992
2017-08-07T12:17:52.041Z,60576
2017-08-07T12:19:01.260Z,39392
2017-08-07T12:20:10.305Z,60704
2017-08-07T12:21:19.843Z,44928
2017-08-07T12:22:29.387Z,64384
2017-08-07T12:23:38.611Z,59328
2017-08-07T12:24:48.200Z,58176
2017-08-07T12:25:58.052Z,59488
2017-08-07T12:27:07.596Z,63904
2017-08-07T12:28:17.142Z,68320
2017-08-07T12:29:26.362Z,10160
2017-08-07T12:30:35.920Z,12708
2017-08-07T12:31:45.846Z,13308
2017-08-07T12:32:54.754Z,60768
2017-08-07T12:34:04.296Z,65856
2017-08-07T12:35:13.521Z,71520
2017-08-07T12:36:23.070Z,74880
2017-08-07T12:37:32.913Z,75552
2017-08-07T12:38:42.138Z,73504
2017-08-07T12:39:52.011Z,76928
2017-08-07T12:41:01.885Z,79616
2017-08-07T12:42:11.110Z,80160
2017-08-07T12:43:21.509Z,81088
2017-08-07T12:44:31.057Z,84576
2017-08-07T12:45:40.604Z,13056
2017-08-07T12:46:49.846Z,67072
2017-08-07T12:47:59.724Z,76224
2017-08-07T12:49:09.515Z,45952
2017-08-07T12:50:19.824Z,42400
2017-08-07T12:51:29.063Z,82880
2017-08-07T12:52:38.937Z,85152
2017-08-07T12:53:48.490Z,80608
2017-08-07T12:54:58.017Z,76064
2017-08-07T12:56:07.253Z,73344
2017-08-07T12:57:17.148Z,74048
2017-08-07T12:58:27.022Z,71648
2017-08-07T12:59:36.946Z,68832
2017-08-07T13:00:46.024Z,66560
2017-08-07T13:01:54.928Z,60992
2017-08-07T13:03:04.823Z,62720
2017-08-07T13:04:15.186Z,58272
2017-08-07T13:05:25.385Z,12508
2017-08-07T13:06:34.762Z,13076
2017-08-07T13:07:43.993Z,11300
2017-08-07T13:08:53.266Z,12908
2017-08-07T13:10:02.820Z,50560
2017-08-07T13:11:12.738Z,63328
2017-08-07T13:12:23.034Z,62048
2017-08-07T13:13:32.795Z,22912
2017-08-07T13:14:42.021Z,51136
2017-08-07T13:15:51.247Z,53472
2017-08-07T13:17:00.482Z,54112
2017-08-07T13:18:10.090Z,62976
2017-08-07T13:19:19.677Z,65472
2017-08-07T13:20:29.229Z,62624
2017-08-07T13:21:39.425Z,54688
2017-08-07T13:22:48.658Z,54144
2017-08-07T13:23:58.654Z,54208
2017-08-07T13:25:08.206Z,48000
2017-08-07T13:26:17.752Z,50240
2017-08-07T13:27:26.983Z,45344
2017-08-07T13:28:36.535Z,12760
2017-08-07T13:29:46.391Z,10840
2017-08-07T13:30:55.942Z,9384
2017-08-07T13:32:06.133Z,8584
2017-08-07T13:33:15.685Z,8136
2017-08-07T13:34:25.233Z,9160
2017-08-07T13:35:35.029Z,21408
2017-08-07T13:36:44.252Z,46432
2017-08-07T13:37:53.152Z,56480
2017-08-07T13:39:02.375Z,55808
2017-08-07T13:40:11.605Z,57376
2017-08-07T13:41:21.740Z,55008
2017-08-07T13:42:30.965Z,47840
2017-08-07T13:43:40.834Z,12752
2017-08-07T13:44:50.710Z,17088
2017-08-07T13:45:59.944Z,12616
2017-08-07T13:47:09.919Z,11752
2017-08-07T13:48:19.494Z,37888
2017-08-07T13:49:28.719Z,14160
2017-08-07T13:50:37.958Z,12404
2017-08-07T13:51:47.502Z,14300
2017-08-07T13:52:57.744Z,43200
2017-08-07T13:54:07.294Z,58688
2017-08-07T13:55:17.048Z,57312
2017-08-07T13:56:26.939Z,57824
2017-08-07T13:57:36.862Z,56928
2017-08-07T13:58:46.754Z,41312
2017-08-07T13:59:56.316Z,55232
2017-08-07T14:01:05.550Z,53504
2017-08-07T14:02:14.772Z,56768
2017-08-07T14:03:23.674Z,53792
2017-08-07T14:04:33.053Z,50688
2017-08-07T14:05:42.933Z,45632
2017-08-07T14:06:52.844Z,47168
2017-08-07T14:08:02.394Z,16192
2017-08-07T14:09:11.630Z,47040
2017-08-07T14:10:20.558Z,14980
2017-08-07T14:11:29.806Z,10448
2017-08-07T14:12:39.678Z,9152
2017-08-07T14:13:49.243Z,8436
2017-08-07T14:14:58.793Z,8056
2017-08-07T14:16:08.665Z,8836
2017-08-07T14:17:17.887Z,10924
2017-08-07T14:18:27.117Z,7340
2017-08-07T14:19:36.709Z,7352
2017-08-07T14:20:45.931Z,9016
2017-08-07T14:21:55.156Z,51360
2017-08-07T14:23:04.066Z,50528
2017-08-07T14:24:13.610Z,16384
2017-08-07T14:25:23.488Z,11424
2017-08-07T14:26:33.688Z,10300
2017-08-07T14:27:42.585Z,9920
2017-08-07T14:28:51.808Z,53056
2017-08-07T14:30:01.462Z,8656
2017-08-07T14:31:11.008Z,7556
2017-08-07T14:32:19.911Z,7440
2017-08-07T14:33:29.132Z,7836
2017-08-07T14:34:38.352Z,7632
2017-08-07T14:35:47.451Z,7208
2017-08-07T14:36:57.001Z,7216
2017-08-07T14:38:07.216Z,7708
2017-08-07T14:39:16.492Z,7808
2017-08-07T14:40:25.722Z,8660
2017-08-07T14:41:35.738Z,32992
2017-08-07T14:42:45.290Z,39840
2017-08-07T14:43:54.507Z,51264
2017-08-07T14:45:04.045Z,53920
2017-08-07T14:46:13.591Z,58528
2017-08-07T14:47:22.814Z,57280
2017-08-07T14:48:32.052Z,56768
2017-08-07T14:49:41.598Z,57920
2017-08-07T14:50:50.508Z,54592
2017-08-07T14:52:00.375Z,45728
2017-08-07T14:53:09.753Z,43392
2017-08-07T14:54:18.655Z,41120
2017-08-07T14:55:28.523Z,38272
2017-08-07T14:56:38.398Z,10088
2017-08-07T14:57:47.620Z,9240
2017-08-07T14:58:57.045Z,33792
2017-08-07T15:00:06.922Z,32736
2017-08-07T15:01:16.790Z,37568
2017-08-07T15:02:26.014Z,39392
2017-08-07T15:03:35.564Z,40000
2017-08-07T15:04:44.942Z,36224
2017-08-07T15:05:54.168Z,43840
2017-08-07T15:07:03.713Z,40512
2017-08-07T15:08:13.582Z,46464
2017-08-07T15:09:23.125Z,36960
2017-08-07T15:10:32.396Z,17024
2017-08-07T15:11:42.266Z,32256
2017-08-07T15:12:51.815Z,11772
2017-08-07T15:14:01.370Z,28896
2017-08-07T15:15:10.914Z,8336
2017-08-07T15:16:20.785Z,9476
2017-08-07T15:17:30.655Z,9160
2017-08-07T15:18:40.209Z,33568
2017-08-07T15:19:50.404Z,30240
2017-08-07T15:21:00.268Z,37216
2017-08-07T15:22:10.468Z,38816
2017-08-07T15:23:20.023Z,34368
2017-08-07T15:24:29.924Z,39936
2017-08-07T15:25:39.471Z,40736
2017-08-07T15:26:48.690Z,37312
2017-08-07T15:27:58.863Z,38816
2017-08-07T15:29:09.055Z,28896
2017-08-07T15:30:18.600Z,11100
2017-08-07T15:31:27.825Z,6328
2017-08-07T15:32:37.047Z,5680
2017-08-07T15:33:47.389Z,5244
2017-08-07T15:34:56.624Z,4708
2017-08-07T15:36:06.508Z,4332
2017-08-07T15:37:15.736Z,4328
2017-08-07T15:38:25.279Z,4736
2017-08-07T15:39:34.552Z,5524
2017-08-07T15:40:44.096Z,5696
2017-08-07T15:41:53.994Z,6808
2017-08-07T15:43:02.924Z,15348
2017-08-07T15:44:12.795Z,18004
2017-08-07T15:45:22.065Z,5708